Terminal Aerodrome Forecast
Issued by NWS Wilmington, OH

Home | Current Version | Previous Version | Text Only | Print | Product List | Glossary On
Versions: 1 2 3 4 5 6 7 8 9 10 11 12 13 14 15 16 17 18 19 20 21 22 23
215
FTUS41 KILN 141137
TAFCVG
TAF
KCVG 141137Z 1412/1518 12008KT P6SM OVC080
     FM141900 12009KT 4SM -SN SCT015 OVC035
     FM142100 13009KT 4SM -SN SCT008 OVC015
      TEMPO 1421/1424 1SM -SN
     FM150500 16007KT 3SM -FZDZ OVC006
     FM151300 17007KT P6SM OVC008=

USA.gov is the U.S. government's official web portal to all federal, state and local government web resources and services.